createdAt,value
2022-08-09T00:00:04.261Z,21.26
2022-08-09T00:02:49.431Z,20.95
2022-08-09T00:06:17.892Z,20.81
2022-08-09T00:08:09.787Z,20.78
2022-08-09T00:10:37.733Z,20.77
2022-08-09T00:13:16.939Z,20.74
2022-08-09T00:15:58.896Z,20.75
2022-08-09T00:18:29.838Z,20.69
2022-08-09T00:21:00.103Z,20.61
2022-08-09T00:23:57.398Z,20.54
2022-08-09T00:26:14.625Z,20.47
2022-08-09T00:28:42.195Z,20.32
2022-08-09T00:31:57.360Z,20.30
2022-08-09T00:34:08.863Z,20.30
2022-08-09T00:36:39.989Z,20.32
2022-08-09T00:39:10.917Z,20.36
2022-08-09T00:44:09.846Z,20.36
2022-08-09T00:44:43.430Z,20.34
2022-08-09T00:47:15.520Z,20.26
2022-08-09T00:49:43.807Z,20.23
2022-08-09T00:52:30.487Z,20.20
2022-08-09T00:55:00.312Z,20.20
2022-08-09T00:57:34.218Z,20.18
2022-08-09T01:00:21.424Z,20.19
2022-08-09T01:02:53.148Z,20.26
2022-08-09T01:05:53.667Z,20.30
2022-08-09T01:08:29.970Z,20.32
2022-08-09T01:11:09.715Z,20.33
2022-08-09T01:13:59.122Z,20.32
2022-08-09T01:16:30.789Z,20.26
2022-08-09T01:19:04.682Z,20.25
2022-08-09T01:21:51.137Z,20.25
2022-08-09T01:24:35.711Z,20.25
2022-08-09T01:27:07.930Z,20.25
2022-08-09T01:29:55.065Z,20.26
2022-08-09T01:32:34.342Z,20.28
2022-08-09T01:35:29.039Z,20.27
2022-08-09T01:38:09.215Z,20.29
2022-08-09T01:40:45.226Z,20.27
2022-08-09T01:43:24.127Z,20.22
2022-08-09T01:45:54.396Z,20.15
2022-08-09T01:48:31.381Z,20.08
2022-08-09T01:50:59.743Z,20.02
2022-08-09T01:53:29.044Z,20.02
2022-08-09T01:55:57.984Z,20.00
2022-08-09T01:58:29.960Z,19.96
2022-08-09T02:00:58.986Z,19.92
2022-08-09T02:03:29.586Z,19.82
2022-08-09T02:06:03.700Z,19.70
2022-08-09T02:08:57.345Z,19.66
2022-08-09T02:11:42.903Z,19.58
2022-08-09T02:14:25.057Z,19.56
2022-08-09T02:16:59.653Z,19.53
2022-08-09T02:19:43.870Z,19.50
2022-08-09T02:22:19.046Z,19.49
2022-08-09T02:24:58.609Z,19.50
2022-08-09T02:27:57.380Z,19.46
2022-08-09T02:30:19.416Z,19.39
2022-08-09T02:32:48.111Z,19.35
2022-08-09T02:35:26.078Z,19.23
2022-08-09T02:38:27.932Z,19.25
2022-08-09T02:41:01.282Z,19.27
2022-08-09T02:43:30.302Z,19.23
2022-08-09T02:46:17.446Z,19.23
2022-08-09T02:48:46.133Z,19.12
2022-08-09T02:51:17.721Z,19.06
2022-08-09T02:54:00.493Z,19.08
2022-08-09T02:56:29.385Z,19.11
2022-08-09T02:58:58.311Z,19.07
2022-08-09T03:01:43.184Z,19.12
2022-08-09T03:04:19.802Z,19.14
2022-08-09T03:06:48.935Z,19.15
2022-08-09T03:09:17.846Z,19.10
2022-08-09T03:12:05.449Z,19.07
2022-08-09T03:14:33.598Z,19.05
2022-08-09T03:17:05.947Z,19.05
2022-08-09T03:19:59.589Z,19.02
2022-08-09T03:22:29.902Z,18.98
2022-08-09T03:25:06.695Z,18.93
2022-08-09T03:27:50.774Z,18.80
2022-08-09T03:30:23.662Z,18.72
2022-08-09T03:33:13.113Z,18.65
2022-08-09T03:36:16.038Z,18.56
2022-08-09T03:38:33.369Z,18.57
2022-08-09T03:41:00.596Z,18.69
2022-08-09T03:43:32.061Z,18.84
2022-08-09T03:46:05.421Z,18.95
2022-08-09T03:48:53.852Z,18.95
2022-08-09T03:51:56.819Z,19.03
2022-08-09T03:54:10.681Z,19.06
2022-08-09T03:56:41.300Z,18.97
2022-08-09T03:59:17.280Z,19.02
2022-08-09T04:01:54.814Z,19.16
2022-08-09T04:04:24.622Z,19.05
2022-08-09T04:06:51.875Z,19.09
2022-08-09T04:09:47.883Z,19.19
2022-08-09T04:12:30.783Z,19.22
2022-08-09T04:15:01.977Z,19.35
2022-08-09T04:17:42.384Z,19.53
2022-08-09T04:20:13.822Z,19.70
2022-08-09T04:22:44.237Z,19.70
2022-08-09T04:25:13.022Z,19.61
2022-08-09T04:27:46.727Z,19.51
2022-08-09T04:30:20.860Z,19.52
2022-08-09T04:32:50.754Z,19.53
2022-08-09T04:35:21.808Z,19.57
2022-08-09T04:37:50.018Z,19.60
2022-08-09T04:40:28.916Z,19.60
2022-08-09T04:43:04.001Z,19.69
2022-08-09T04:45:36.064Z,19.81
2022-08-09T04:48:20.218Z,19.91
2022-08-09T04:50:50.098Z,20.13
2022-08-09T04:53:17.469Z,20.20
2022-08-09T04:55:58.507Z,20.27
2022-08-09T04:58:27.082Z,20.35
2022-08-09T05:00:55.299Z,20.37
2022-08-09T05:03:40.362Z,20.46
2022-08-09T05:06:18.245Z,20.56
2022-08-09T05:09:00.224Z,20.75
2022-08-09T05:11:32.001Z,20.91
2022-08-09T05:14:06.078Z,21.26
2022-08-09T05:16:34.187Z,21.69
2022-08-09T05:19:11.227Z,21.92
2022-08-09T05:21:47.055Z,22.01
2022-08-09T05:24:22.717Z,21.96
2022-08-09T05:26:51.989Z,22.03
2022-08-09T05:29:24.140Z,22.27
2022-08-09T05:32:00.561Z,22.84
2022-08-09T05:34:30.762Z,23.38
2022-08-09T05:37:06.462Z,23.74
2022-08-09T05:39:35.633Z,23.98
2022-08-09T05:42:07.059Z,24.37
2022-08-09T05:44:36.061Z,24.75
2022-08-09T05:47:05.672Z,25.01
2022-08-09T05:50:23.497Z,25.32
2022-08-09T05:52:24.861Z,25.53
2022-08-09T05:54:52.518Z,25.87
2022-08-09T05:57:19.781Z,26.28
2022-08-09T05:59:52.478Z,26.60
2022-08-09T06:02:20.447Z,26.92
2022-08-09T06:04:49.202Z,27.08
2022-08-09T06:07:21.701Z,27.21
2022-08-09T06:09:54.945Z,27.54
2022-08-09T06:12:29.169Z,27.76
2022-08-09T06:15:00.883Z,27.91
2022-08-09T06:17:40.519Z,28.10
2022-08-09T06:20:09.055Z,28.29
2022-08-09T06:22:36.817Z,28.46
2022-08-09T06:25:08.560Z,28.53
2022-08-09T06:27:42.126Z,28.62
2022-08-09T06:30:14.231Z,28.67
2022-08-09T06:32:58.837Z,28.76
2022-08-09T06:35:35.746Z,28.83
2022-08-09T06:38:15.948Z,29.09
2022-08-09T06:40:44.735Z,29.34
2022-08-09T06:43:13.525Z,29.62
2022-08-09T06:46:04.959Z,29.92
2022-08-09T06:48:31.108Z,30.08
2022-08-09T06:50:59.559Z,30.25
2022-08-09T06:53:27.079Z,30.31
2022-08-09T06:56:03.187Z,30.37
2022-08-09T07:00:46.990Z,30.47
2022-08-09T07:01:18.204Z,30.64
2022-08-09T07:03:52.547Z,30.77
2022-08-09T07:06:21.106Z,30.94
2022-08-09T07:08:49.569Z,31.14
2022-08-09T07:11:25.269Z,31.32
2022-08-09T07:14:04.338Z,31.51
2022-08-09T07:16:42.563Z,31.71
2022-08-09T07:19:23.191Z,32.00
2022-08-09T07:21:57.555Z,32.24
2022-08-09T07:24:32.406Z,32.50
2022-08-09T07:27:28.244Z,32.69
2022-08-09T07:29:59.340Z,32.83
2022-08-09T07:32:32.151Z,32.94
2022-08-09T07:35:02.664Z,33.06
2022-08-09T07:37:30.141Z,33.23
2022-08-09T07:40:13.066Z,33.35
2022-08-09T07:42:54.524Z,33.49
2022-08-09T07:45:39.179Z,33.65
2022-08-09T07:48:22.468Z,33.84
2022-08-09T07:51:09.158Z,33.98
2022-08-09T07:54:04.428Z,34.15
2022-08-09T07:56:33.371Z,34.32
2022-08-09T07:59:03.072Z,34.55
2022-08-09T08:01:34.118Z,34.79
2022-08-09T08:04:02.686Z,34.93
2022-08-09T08:06:32.256Z,34.96
2022-08-09T08:09:04.888Z,34.99
2022-08-09T08:12:24.793Z,35.18
2022-08-09T08:14:21.428Z,35.40
2022-08-09T08:17:00.979Z,35.53
2022-08-09T08:19:35.443Z,35.48
2022-08-09T08:22:02.798Z,35.50
2022-08-09T08:24:39.939Z,35.43
2022-08-09T08:27:16.803Z,35.51
2022-08-09T08:29:50.099Z,35.70
2022-08-09T08:32:28.743Z,35.89
2022-08-09T08:34:58.770Z,36.03
2022-08-09T08:37:26.513Z,36.10
2022-08-09T08:40:10.719Z,36.11
2022-08-09T08:42:38.206Z,36.26
2022-08-09T08:45:14.048Z,36.53
2022-08-09T08:47:44.906Z,36.72
2022-08-09T08:50:18.333Z,36.86
2022-08-09T08:52:57.314Z,36.95
2022-08-09T08:55:27.539Z,37.12
2022-08-09T08:57:57.568Z,37.22
2022-08-09T09:00:34.342Z,37.36
2022-08-09T09:03:11.233Z,37.42
2022-08-09T09:05:59.970Z,37.42
2022-08-09T09:08:32.074Z,37.54
2022-08-09T09:11:06.314Z,37.57
2022-08-09T09:13:55.029Z,37.55
2022-08-09T09:16:29.982Z,37.42
2022-08-09T09:22:05.154Z,37.18
2022-08-09T09:24:37.899Z,37.49
2022-08-09T09:27:07.371Z,37.60
2022-08-09T09:30:08.761Z,37.49
2022-08-09T09:32:34.703Z,37.83
2022-08-09T09:35:09.284Z,38.15
2022-08-09T09:37:40.454Z,38.13
2022-08-09T09:40:11.581Z,38.19
2022-08-09T09:42:56.519Z,38.28
2022-08-09T09:45:26.346Z,38.44
2022-08-09T09:48:03.354Z,38.68
2022-08-09T09:50:49.792Z,38.83
2022-08-09T09:53:21.037Z,39.04
2022-08-09T09:55:57.691Z,39.21
2022-08-09T09:58:45.052Z,39.41
2022-08-09T10:01:37.305Z,39.72
2022-08-09T10:04:16.031Z,39.84
2022-08-09T10:06:46.999Z,39.61
2022-08-09T10:09:22.123Z,39.16
2022-08-09T10:12:12.144Z,38.53
2022-08-09T10:14:48.019Z,38.03
2022-08-09T10:17:39.853Z,37.99
2022-08-09T10:20:27.659Z,38.41
2022-08-09T10:23:17.461Z,38.83
2022-08-09T10:26:07.147Z,38.89
2022-08-09T10:28:36.859Z,38.60
2022-08-09T10:32:27.681Z,38.22
2022-08-09T10:34:09.204Z,38.39
2022-08-09T10:36:42.830Z,38.81
2022-08-09T10:39:13.960Z,39.18
2022-08-09T10:41:47.547Z,39.16
2022-08-09T10:44:18.539Z,39.25
2022-08-09T10:48:16.650Z,39.30
2022-08-09T10:50:27.055Z,39.41
2022-08-09T10:53:10.062Z,38.81
2022-08-09T10:55:57.769Z,38.63
2022-08-09T10:58:34.536Z,39.05
2022-08-09T11:03:13.617Z,39.33
2022-08-09T11:04:19.831Z,39.51
2022-08-09T11:07:58.480Z,39.53
2022-08-09T11:10:57.832Z,39.80
2022-08-09T11:13:50.021Z,39.37
2022-08-09T11:16:37.215Z,38.69
2022-08-09T11:19:09.586Z,38.54
2022-08-09T11:21:56.851Z,38.83
2022-08-09T11:25:03.823Z,38.78
2022-08-09T11:28:02.819Z,38.35
2022-08-09T11:30:34.544Z,37.77
2022-08-09T11:33:08.047Z,37.63
2022-08-09T11:35:50.011Z,37.97
2022-08-09T11:38:22.166Z,38.33
2022-08-09T11:40:53.038Z,38.65
2022-08-09T11:43:52.208Z,39.03
2022-08-09T11:46:33.135Z,39.20
2022-08-09T11:49:05.006Z,38.79
2022-08-09T11:53:03.730Z,38.18
2022-08-09T11:55:22.875Z,37.75
2022-08-09T11:58:40.750Z,37.48
2022-08-09T12:02:00.724Z,37.13
2022-08-09T12:04:20.976Z,37.04
2022-08-09T12:06:56.009Z,37.05
2022-08-09T12:09:26.727Z,37.55
2022-08-09T12:12:06.078Z,37.92
2022-08-09T12:15:03.922Z,37.83
2022-08-09T12:17:41.667Z,38.06
2022-08-09T12:20:19.816Z,37.83
2022-08-09T12:22:52.378Z,37.46
2022-08-09T12:25:36.210Z,37.29
2022-08-09T12:28:58.907Z,37.52
2022-08-09T12:31:01.008Z,37.80
2022-08-09T12:33:50.818Z,37.96
2022-08-09T12:36:31.432Z,38.20
2022-08-09T12:39:00.733Z,38.07
2022-08-09T12:41:36.371Z,37.74
2022-08-09T12:44:09.842Z,37.78
2022-08-09T12:46:40.427Z,37.67
2022-08-09T12:49:09.569Z,37.72
2022-08-09T12:51:59.976Z,38.02
2022-08-09T12:54:24.698Z,38.29
2022-08-09T12:56:54.683Z,38.29
2022-08-09T12:59:23.567Z,37.83
2022-08-09T13:02:02.709Z,37.28
2022-08-09T13:04:37.589Z,36.92
2022-08-09T13:07:16.658Z,36.51
2022-08-09T13:09:52.882Z,36.21
2022-08-09T13:12:27.999Z,35.87
2022-08-09T13:15:04.430Z,35.59
2022-08-09T13:18:02.491Z,35.15
2022-08-09T13:20:37.521Z,34.67
2022-08-09T13:24:42.684Z,34.16
2022-08-09T13:26:36.858Z,33.39
2022-08-09T13:29:13.085Z,32.70
2022-08-09T13:32:19.289Z,32.39
2022-08-09T13:34:46.205Z,31.94
2022-08-09T13:37:24.736Z,31.60
2022-08-09T13:41:50.736Z,31.39
2022-08-09T13:42:50.368Z,31.34
2022-08-09T13:45:18.191Z,31.30
2022-08-09T13:47:49.506Z,31.31
2022-08-09T13:50:30.511Z,31.35
2022-08-09T13:53:00.632Z,31.31
2022-08-09T13:55:28.945Z,31.15
2022-08-09T13:57:59.500Z,30.96
2022-08-09T14:00:29.419Z,30.86
2022-08-09T14:03:02.753Z,30.77
2022-08-09T14:05:56.421Z,30.62
2022-08-09T14:08:31.665Z,30.42
2022-08-09T14:10:59.561Z,30.18
2022-08-09T14:14:22.412Z,30.04
2022-08-09T14:16:17.074Z,30.05
2022-08-09T14:18:49.647Z,29.98
2022-08-09T14:21:20.183Z,29.89
2022-08-09T14:23:55.322Z,29.81
2022-08-09T14:26:31.750Z,29.77
2022-08-09T14:29:02.194Z,29.81
2022-08-09T14:31:36.199Z,29.88
2022-08-09T14:34:30.830Z,29.91
2022-08-09T14:37:01.725Z,29.91
2022-08-09T14:39:39.974Z,29.82
2022-08-09T14:42:28.828Z,29.69
2022-08-09T14:46:59.034Z,29.70
2022-08-09T14:47:58.708Z,29.62
2022-08-09T14:50:29.318Z,29.46
2022-08-09T14:52:58.045Z,29.33
2022-08-09T14:55:31.992Z,29.28
2022-08-09T14:58:03.032Z,29.22
2022-08-09T15:00:31.917Z,29.19
2022-08-09T15:03:02.055Z,29.22
2022-08-09T15:05:32.014Z,29.25
2022-08-09T15:08:00.097Z,29.26
2022-08-09T15:10:31.757Z,29.31
2022-08-09T15:13:01.503Z,29.34
2022-08-09T15:15:34.474Z,29.36
2022-08-09T15:18:08.309Z,29.34
2022-08-09T15:22:00.988Z,29.36
2022-08-09T15:24:02.369Z,29.40
2022-08-09T15:26:30.895Z,29.42
2022-08-09T15:29:02.556Z,29.43
2022-08-09T15:31:41.257Z,29.42
2022-08-09T15:34:32.304Z,29.33
2022-08-09T15:36:59.875Z,29.21
2022-08-09T15:39:44.021Z,29.19
2022-08-09T15:42:19.848Z,29.18
2022-08-09T15:44:49.399Z,29.17
2022-08-09T15:47:21.629Z,29.16
2022-08-09T15:50:04.149Z,29.14
2022-08-09T15:52:36.067Z,29.08
2022-08-09T15:55:05.504Z,28.98
2022-08-09T15:57:44.268Z,28.93
2022-08-09T16:00:25.960Z,28.89
2022-08-09T16:02:56.108Z,28.78
2022-08-09T16:05:47.439Z,28.76
2022-08-09T16:08:29.950Z,28.76
2022-08-09T16:10:58.946Z,28.67
2022-08-09T16:14:04.238Z,28.67
2022-08-09T16:16:17.468Z,28.71
2022-08-09T16:18:46.421Z,28.73
2022-08-09T16:21:17.708Z,28.72
2022-08-09T16:23:54.787Z,28.70
2022-08-09T16:26:34.168Z,28.69
2022-08-09T16:29:11.447Z,28.71
2022-08-09T16:32:19.979Z,28.71
2022-08-09T16:34:28.856Z,28.73
2022-08-09T16:36:56.508Z,28.73
2022-08-09T16:39:25.954Z,28.75
2022-08-09T16:42:04.163Z,28.71
2022-08-09T16:44:33.425Z,28.59
2022-08-09T16:47:03.965Z,28.54
2022-08-09T16:50:29.988Z,28.55
2022-08-09T16:52:35.402Z,28.54
2022-08-09T16:55:02.765Z,28.53
2022-08-09T16:58:07.959Z,28.47
2022-08-09T17:00:19.066Z,28.46
2022-08-09T17:02:46.518Z,28.42
2022-08-09T17:05:17.078Z,28.44
2022-08-09T17:08:46.435Z,28.46
2022-08-09T17:10:34.653Z,28.41
2022-08-09T17:13:03.756Z,28.37
2022-08-09T17:15:59.840Z,28.34
2022-08-09T17:18:27.104Z,28.34
2022-08-09T17:20:57.608Z,28.30
2022-08-09T17:23:37.194Z,28.24
2022-08-09T17:26:12.408Z,28.19
2022-08-09T17:28:39.873Z,28.15
2022-08-09T17:31:08.509Z,28.11
2022-08-09T17:33:37.798Z,28.03
2022-08-09T17:36:05.557Z,28.00
2022-08-09T17:38:39.312Z,27.95
2022-08-09T17:41:08.429Z,27.91
2022-08-09T17:43:37.353Z,27.88
2022-08-09T17:46:07.571Z,27.84
2022-08-09T17:48:51.984Z,27.79
2022-08-09T17:51:21.598Z,27.76
2022-08-09T17:53:53.607Z,27.71
2022-08-09T17:56:27.193Z,27.65
2022-08-09T17:58:59.548Z,27.57
2022-08-09T18:01:58.181Z,27.48
2022-08-09T18:04:17.849Z,27.33
2022-08-09T18:06:54.207Z,27.25
2022-08-09T18:09:23.029Z,27.16
2022-08-09T18:12:14.557Z,27.06
2022-08-09T18:14:49.810Z,26.94
2022-08-09T18:17:27.046Z,26.85
2022-08-09T18:20:58.425Z,26.74
2022-08-09T18:22:59.788Z,26.64
2022-08-09T18:25:51.156Z,26.57
2022-08-09T18:30:40.883Z,26.51
2022-08-09T18:31:08.230Z,26.46
2022-08-09T18:33:36.157Z,26.41
2022-08-09T18:36:05.417Z,26.38
2022-08-09T18:38:32.546Z,26.34
2022-08-09T18:40:59.838Z,26.29
2022-08-09T18:43:27.854Z,26.25
2022-08-09T18:46:50.910Z,26.21
2022-08-09T18:48:51.138Z,26.20
2022-08-09T18:51:19.784Z,26.15
2022-08-09T18:54:09.655Z,26.11
2022-08-09T18:56:45.204Z,26.08
2022-08-09T18:59:22.432Z,26.00
2022-08-09T19:01:54.099Z,25.94
2022-08-09T19:04:34.478Z,25.87
2022-08-09T19:07:05.314Z,25.76
2022-08-09T19:10:12.946Z,25.68
2022-08-09T19:12:21.163Z,25.61
2022-08-09T19:14:51.343Z,25.57
2022-08-09T19:17:18.948Z,25.50
2022-08-09T19:19:48.791Z,25.46
2022-08-09T19:22:17.613Z,25.45
2022-08-09T19:25:08.811Z,25.41
2022-08-09T19:27:34.788Z,25.38
2022-08-09T19:30:25.109Z,25.33
2022-08-09T19:32:52.953Z,25.32
2022-08-09T19:35:21.251Z,25.28
2022-08-09T19:37:57.872Z,25.23
2022-08-09T19:40:33.440Z,25.20
2022-08-09T19:43:05.441Z,25.14
2022-08-09T19:45:40.383Z,25.09
2022-08-09T19:48:10.948Z,25.05
2022-08-09T19:50:49.390Z,24.99
2022-08-09T19:53:21.038Z,24.98
2022-08-09T19:56:03.226Z,24.96
2022-08-09T19:58:34.215Z,24.93
2022-08-09T20:01:01.647Z,24.87
2022-08-09T20:04:09.978Z,24.83
2022-08-09T20:06:23.938Z,24.81
2022-08-09T20:08:59.391Z,24.80
2022-08-09T20:11:43.064Z,24.71
2022-08-09T20:14:16.424Z,24.56
2022-08-09T20:16:54.483Z,24.55
2022-08-09T20:19:49.235Z,24.51
2022-08-09T20:22:10.193Z,24.41
2022-08-09T20:24:53.376Z,24.40
2022-08-09T20:27:21.618Z,24.40
2022-08-09T20:29:49.369Z,24.39
2022-08-09T20:32:30.067Z,24.37
2022-08-09T20:35:05.627Z,24.35
2022-08-09T20:38:08.575Z,24.35
2022-08-09T20:40:27.217Z,24.34
2022-08-09T20:43:12.099Z,24.32
2022-08-09T20:46:00.453Z,24.31
2022-08-09T20:48:31.531Z,24.30
2022-08-09T20:50:59.564Z,24.31
2022-08-09T20:53:35.676Z,24.30
2022-08-09T20:56:21.203Z,24.30
2022-08-09T20:58:50.134Z,24.28
2022-08-09T21:01:34.539Z,24.26
2022-08-09T21:05:48.671Z,24.22
2022-08-09T21:06:52.399Z,24.18
2022-08-09T21:09:41.658Z,24.19
2022-08-09T21:14:41.905Z,24.15
2022-08-09T21:18:11.090Z,24.12
2022-08-09T21:20:17.757Z,24.06
2022-08-09T21:22:46.677Z,24.01
2022-08-09T21:25:37.886Z,23.99
2022-08-09T21:28:11.846Z,23.96
2022-08-09T21:30:40.465Z,23.93
2022-08-09T21:33:08.572Z,23.88
2022-08-09T21:35:39.483Z,23.85
2022-08-09T21:38:08.910Z,23.81
2022-08-09T21:40:36.217Z,23.76
2022-08-09T21:43:07.089Z,23.75
2022-08-09T21:45:39.174Z,23.74
2022-08-09T21:48:07.510Z,23.69
2022-08-09T21:50:38.512Z,23.63
2022-08-09T21:53:15.694Z,23.55
2022-08-09T21:55:51.342Z,23.45
2022-08-09T21:58:19.877Z,23.46
2022-08-09T22:00:48.603Z,23.47
2022-08-09T22:03:25.765Z,23.46
2022-08-09T22:05:54.247Z,23.46
2022-08-09T22:08:24.715Z,23.46
2022-08-09T22:11:04.921Z,23.51
2022-08-09T22:13:42.371Z,23.49
2022-08-09T22:16:12.065Z,23.48
2022-08-09T22:18:53.235Z,23.48
2022-08-09T22:21:24.070Z,23.52
2022-08-09T22:24:01.221Z,23.56
2022-08-09T22:26:35.104Z,23.58
2022-08-09T22:29:09.499Z,23.60
2022-08-09T22:31:38.145Z,23.63
2022-08-09T22:34:14.971Z,23.63
2022-08-09T22:36:46.197Z,23.62
2022-08-09T22:39:20.768Z,23.70
2022-08-09T22:42:01.746Z,23.74
2022-08-09T22:44:33.081Z,23.76
2022-08-09T22:48:14.951Z,23.81
2022-08-09T22:49:52.138Z,23.84
2022-08-09T22:52:21.236Z,23.82
2022-08-09T22:54:51.630Z,23.87
2022-08-09T22:57:18.794Z,23.89
2022-08-09T22:59:55.503Z,23.90
2022-08-09T23:02:26.033Z,23.90
2022-08-09T23:04:55.406Z,23.87
2022-08-09T23:08:21.776Z,23.77
2022-08-09T23:10:31.484Z,23.73
2022-08-09T23:12:59.676Z,23.67
2022-08-09T23:15:29.526Z,23.62
2022-08-09T23:17:57.056Z,23.63
2022-08-09T23:20:26.138Z,23.61
2022-08-09T23:22:53.679Z,23.59
2022-08-09T23:25:20.866Z,23.58
2022-08-09T23:28:01.866Z,23.59
2022-08-09T23:30:36.545Z,23.57
2022-08-09T23:33:03.787Z,23.54
2022-08-09T23:35:30.997Z,23.55
2022-08-09T23:38:18.310Z,23.54
2022-08-09T23:40:45.638Z,23.52
2022-08-09T23:43:13.005Z,23.51
2022-08-09T23:45:41.567Z,23.49
2022-08-09T23:48:09.259Z,23.49
2022-08-09T23:50:36.758Z,23.49
2022-08-09T23:53:04.308Z,23.47
2022-08-09T23:55:33.098Z,23.42
2022-08-09T23:58:09.391Z,23.41
